sensor_id;sensor_type;location;lat;lon;timestamp;P1;durP1;ratioP1;P2;durP2;ratioP2
54841;SDS011;40741;45.002;7.536;2024-02-23T00:00:43;57.33;;;32.75;;
54841;SDS011;40741;45.002;7.536;2024-02-23T00:03:09;60.05;;;33.65;;
54841;SDS011;40741;45.002;7.536;2024-02-23T00:05:35;57.33;;;35.10;;
54841;SDS011;40741;45.002;7.536;2024-02-23T00:08:02;62.10;;;33.45;;
54841;SDS011;40741;45.002;7.536;2024-02-23T00:10:28;60.75;;;34.15;;
54841;SDS011;40741;45.002;7.536;2024-02-23T00:12:54;55.00;;;32.25;;
54841;SDS011;40741;45.002;7.536;2024-02-23T00:15:21;62.03;;;33.95;;
54841;SDS011;40741;45.002;7.536;2024-02-23T00:17:50;59.53;;;33.63;;
54841;SDS011;40741;45.002;7.536;2024-02-23T00:20:17;54.50;;;31.90;;
54841;SDS011;40741;45.002;7.536;2024-02-23T00:22:43;58.00;;;33.17;;
54841;SDS011;40741;45.002;7.536;2024-02-23T00:25:09;55.70;;;32.50;;
54841;SDS011;40741;45.002;7.536;2024-02-23T00:27:36;50.97;;;31.05;;
54841;SDS011;40741;45.002;7.536;2024-02-23T00:30:04;52.55;;;30.95;;
54841;SDS011;40741;45.002;7.536;2024-02-23T00:32:30;53.58;;;30.80;;
54841;SDS011;40741;45.002;7.536;2024-02-23T00:34:58;53.90;;;31.30;;
54841;SDS011;40741;45.002;7.536;2024-02-23T00:37:24;52.97;;;31.40;;
54841;SDS011;40741;45.002;7.536;2024-02-23T00:39:50;51.28;;;30.70;;
54841;SDS011;40741;45.002;7.536;2024-02-23T00:42:16;50.60;;;29.70;;
54841;SDS011;40741;45.002;7.536;2024-02-23T00:44:42;50.67;;;30.08;;
54841;SDS011;40741;45.002;7.536;2024-02-23T00:47:08;48.83;;;29.88;;
54841;SDS011;40741;45.002;7.536;2024-02-23T00:49:34;52.90;;;30.17;;
54841;SDS011;40741;45.002;7.536;2024-02-23T00:52:00;47.83;;;27.65;;
54841;SDS011;40741;45.002;7.536;2024-02-23T00:54:26;48.35;;;29.05;;
54841;SDS011;40741;45.002;7.536;2024-02-23T00:56:52;54.72;;;29.75;;
54841;SDS011;40741;45.002;7.536;2024-02-23T00:59:18;46.88;;;28.27;;
54841;SDS011;40741;45.002;7.536;2024-02-23T01:01:44;45.40;;;29.15;;
54841;SDS011;40741;45.002;7.536;2024-02-23T01:04:10;48.75;;;28.05;;
54841;SDS011;40741;45.002;7.536;2024-02-23T01:06:36;43.05;;;28.20;;
54841;SDS011;40741;45.002;7.536;2024-02-23T01:09:02;43.42;;;25.67;;
54841;SDS011;40741;45.002;7.536;2024-02-23T01:11:29;41.90;;;25.88;;
54841;SDS011;40741;45.002;7.536;2024-02-23T01:13:55;42.80;;;25.73;;
54841;SDS011;40741;45.002;7.536;2024-02-23T01:16:21;44.42;;;26.65;;
54841;SDS011;40741;45.002;7.536;2024-02-23T01:18:48;40.15;;;24.13;;
54841;SDS011;40741;45.002;7.536;2024-02-23T01:21:14;37.88;;;24.80;;
54841;SDS011;40741;45.002;7.536;2024-02-23T01:23:40;39.67;;;25.58;;
54841;SDS011;40741;45.002;7.536;2024-02-23T01:26:06;39.38;;;25.02;;
54841;SDS011;40741;45.002;7.536;2024-02-23T01:28:32;37.03;;;24.67;;
54841;SDS011;40741;45.002;7.536;2024-02-23T01:30:58;45.95;;;26.50;;
54841;SDS011;40741;45.002;7.536;2024-02-23T01:33:24;44.05;;;26.30;;
54841;SDS011;40741;45.002;7.536;2024-02-23T01:35:50;42.35;;;26.35;;
54841;SDS011;40741;45.002;7.536;2024-02-23T01:38:16;42.13;;;26.88;;
54841;SDS011;40741;45.002;7.536;2024-02-23T01:40:46;39.95;;;25.85;;
54841;SDS011;40741;45.002;7.536;2024-02-23T01:43:13;41.17;;;25.67;;
54841;SDS011;40741;45.002;7.536;2024-02-23T01:45:39;44.28;;;27.13;;
54841;SDS011;40741;45.002;7.536;2024-02-23T01:48:05;47.40;;;28.08;;
54841;SDS011;40741;45.002;7.536;2024-02-23T01:50:31;47.67;;;27.25;;
54841;SDS011;40741;45.002;7.536;2024-02-23T01:53:00;49.70;;;28.52;;
54841;SDS011;40741;45.002;7.536;2024-02-23T01:55:28;47.58;;;28.83;;
54841;SDS011;40741;45.002;7.536;2024-02-23T01:57:54;50.08;;;29.77;;
54841;SDS011;40741;45.002;7.536;2024-02-23T02:00:21;51.83;;;30.95;;
54841;SDS011;40741;45.002;7.536;2024-02-23T02:02:47;50.10;;;29.05;;
54841;SDS011;40741;45.002;7.536;2024-02-23T02:05:14;48.13;;;29.25;;
54841;SDS011;40741;45.002;7.536;2024-02-23T02:07:43;45.28;;;27.35;;
54841;SDS011;40741;45.002;7.536;2024-02-23T02:10:09;44.75;;;27.75;;
54841;SDS011;40741;45.002;7.536;2024-02-23T02:12:35;47.05;;;27.05;;
54841;SDS011;40741;45.002;7.536;2024-02-23T02:15:01;44.28;;;26.85;;
54841;SDS011;40741;45.002;7.536;2024-02-23T02:17:28;41.65;;;23.98;;
54841;SDS011;40741;45.002;7.536;2024-02-23T02:19:54;39.95;;;23.80;;
54841;SDS011;40741;45.002;7.536;2024-02-23T02:22:20;38.72;;;24.15;;
54841;SDS011;40741;45.002;7.536;2024-02-23T02:24:46;38.13;;;22.27;;
54841;SDS011;40741;45.002;7.536;2024-02-23T02:27:13;39.20;;;23.73;;
54841;SDS011;40741;45.002;7.536;2024-02-23T02:29:39;35.33;;;20.90;;
54841;SDS011;40741;45.002;7.536;2024-02-23T02:32:05;29.58;;;18.67;;
54841;SDS011;40741;45.002;7.536;2024-02-23T02:34:31;30.05;;;19.65;;
54841;SDS011;40741;45.002;7.536;2024-02-23T02:36:59;31.83;;;19.67;;
54841;SDS011;40741;45.002;7.536;2024-02-23T02:39:25;30.58;;;18.95;;
54841;SDS011;40741;45.002;7.536;2024-02-23T02:41:51;29.58;;;18.92;;
54841;SDS011;40741;45.002;7.536;2024-02-23T02:44:17;26.67;;;17.45;;
54841;SDS011;40741;45.002;7.536;2024-02-23T02:46:43;30.67;;;18.73;;
54841;SDS011;40741;45.002;7.536;2024-02-23T02:49:11;27.10;;;17.20;;
54841;SDS011;40741;45.002;7.536;2024-02-23T02:51:37;30.17;;;18.40;;
54841;SDS011;40741;45.002;7.536;2024-02-23T02:54:04;28.10;;;18.08;;
54841;SDS011;40741;45.002;7.536;2024-02-23T02:56:30;29.10;;;19.17;;
54841;SDS011;40741;45.002;7.536;2024-02-23T02:58:56;33.05;;;21.15;;
54841;SDS011;40741;45.002;7.536;2024-02-23T03:01:23;36.35;;;21.77;;
54841;SDS011;40741;45.002;7.536;2024-02-23T03:03:49;34.25;;;20.92;;
54841;SDS011;40741;45.002;7.536;2024-02-23T03:06:15;37.00;;;20.98;;
54841;SDS011;40741;45.002;7.536;2024-02-23T03:08:42;36.33;;;21.08;;
54841;SDS011;40741;45.002;7.536;2024-02-23T03:11:08;33.90;;;21.13;;
54841;SDS011;40741;45.002;7.536;2024-02-23T03:13:35;36.42;;;22.90;;
54841;SDS011;40741;45.002;7.536;2024-02-23T03:16:01;37.30;;;22.67;;
54841;SDS011;40741;45.002;7.536;2024-02-23T03:18:27;37.42;;;24.88;;
54841;SDS011;40741;45.002;7.536;2024-02-23T03:20:53;34.85;;;22.42;;
54841;SDS011;40741;45.002;7.536;2024-02-23T03:23:20;36.35;;;24.50;;
54841;SDS011;40741;45.002;7.536;2024-02-23T03:25:46;38.30;;;23.40;;
54841;SDS011;40741;45.002;7.536;2024-02-23T03:28:12;36.90;;;22.35;;
54841;SDS011;40741;45.002;7.536;2024-02-23T03:30:38;40.40;;;23.80;;
54841;SDS011;40741;45.002;7.536;2024-02-23T03:33:04;40.80;;;24.30;;
54841;SDS011;40741;45.002;7.536;2024-02-23T03:35:30;37.28;;;23.23;;
54841;SDS011;40741;45.002;7.536;2024-02-23T03:37:56;34.88;;;22.15;;
54841;SDS011;40741;45.002;7.536;2024-02-23T03:40:24;36.30;;;22.25;;
54841;SDS011;40741;45.002;7.536;2024-02-23T03:42:50;35.75;;;22.17;;
54841;SDS011;40741;45.002;7.536;2024-02-23T03:45:16;36.20;;;22.17;;
54841;SDS011;40741;45.002;7.536;2024-02-23T03:47:42;39.33;;;23.83;;
54841;SDS011;40741;45.002;7.536;2024-02-23T03:50:08;37.67;;;21.92;;
54841;SDS011;40741;45.002;7.536;2024-02-23T03:52:34;37.85;;;23.88;;
54841;SDS011;40741;45.002;7.536;2024-02-23T03:55:01;38.60;;;24.77;;
54841;SDS011;40741;45.002;7.536;2024-02-23T03:57:28;37.83;;;23.58;;
54841;SDS011;40741;45.002;7.536;2024-02-23T03:59:55;37.03;;;23.65;;
54841;SDS011;40741;45.002;7.536;2024-02-23T04:02:21;37.05;;;23.05;;
54841;SDS011;40741;45.002;7.536;2024-02-23T04:04:47;37.13;;;23.60;;
54841;SDS011;40741;45.002;7.536;2024-02-23T04:07:14;35.88;;;23.35;;
54841;SDS011;40741;45.002;7.536;2024-02-23T04:09:40;38.58;;;23.08;;
54841;SDS011;40741;45.002;7.536;2024-02-23T04:12:06;35.40;;;22.30;;
54841;SDS011;40741;45.002;7.536;2024-02-23T04:14:32;40.30;;;23.75;;
54841;SDS011;40741;45.002;7.536;2024-02-23T04:17:02;37.20;;;22.75;;
54841;SDS011;40741;45.002;7.536;2024-02-23T04:19:28;34.33;;;20.75;;
54841;SDS011;40741;45.002;7.536;2024-02-23T04:21:54;34.92;;;22.75;;
54841;SDS011;40741;45.002;7.536;2024-02-23T04:24:20;37.15;;;21.77;;
54841;SDS011;40741;45.002;7.536;2024-02-23T04:26:46;35.28;;;22.98;;
54841;SDS011;40741;45.002;7.536;2024-02-23T04:29:12;36.80;;;24.08;;
54841;SDS011;40741;45.002;7.536;2024-02-23T04:31:38;38.42;;;25.30;;
54841;SDS011;40741;45.002;7.536;2024-02-23T04:34:04;41.13;;;25.63;;
54841;SDS011;40741;45.002;7.536;2024-02-23T04:36:30;40.58;;;25.13;;
54841;SDS011;40741;45.002;7.536;2024-02-23T04:38:56;40.35;;;24.80;;
54841;SDS011;40741;45.002;7.536;2024-02-23T04:41:22;42.78;;;24.95;;
54841;SDS011;40741;45.002;7.536;2024-02-23T04:43:48;38.47;;;24.90;;
54841;SDS011;40741;45.002;7.536;2024-02-23T04:46:14;39.63;;;25.33;;
54841;SDS011;40741;45.002;7.536;2024-02-23T04:48:40;39.70;;;25.23;;
54841;SDS011;40741;45.002;7.536;2024-02-23T04:51:07;38.05;;;25.17;;
54841;SDS011;40741;45.002;7.536;2024-02-23T04:53:37;39.63;;;23.05;;
54841;SDS011;40741;45.002;7.536;2024-02-23T04:56:04;40.55;;;24.70;;
54841;SDS011;40741;45.002;7.536;2024-02-23T04:58:30;41.85;;;25.45;;
54841;SDS011;40741;45.002;7.536;2024-02-23T05:00:56;44.10;;;25.25;;
54841;SDS011;40741;45.002;7.536;2024-02-23T05:03:22;38.35;;;23.75;;
54841;SDS011;40741;45.002;7.536;2024-02-23T05:05:48;42.72;;;25.30;;
54841;SDS011;40741;45.002;7.536;2024-02-23T05:08:18;39.47;;;24.48;;
54841;SDS011;40741;45.002;7.536;2024-02-23T05:10:45;31.17;;;20.15;;
54841;SDS011;40741;45.002;7.536;2024-02-23T05:13:11;36.33;;;22.08;;
54841;SDS011;40741;45.002;7.536;2024-02-23T05:15:37;30.10;;;20.10;;
54841;SDS011;40741;45.002;7.536;2024-02-23T05:18:03;27.75;;;18.13;;
54841;SDS011;40741;45.002;7.536;2024-02-23T05:20:30;27.75;;;18.05;;
54841;SDS011;40741;45.002;7.536;2024-02-23T05:22:56;30.42;;;19.92;;
54841;SDS011;40741;45.002;7.536;2024-02-23T05:25:22;28.88;;;18.65;;
54841;SDS011;40741;45.002;7.536;2024-02-23T05:27:48;33.67;;;20.35;;
54841;SDS011;40741;45.002;7.536;2024-02-23T05:30:14;37.50;;;24.23;;
54841;SDS011;40741;45.002;7.536;2024-02-23T05:32:40;32.58;;;19.70;;
54841;SDS011;40741;45.002;7.536;2024-02-23T05:35:06;31.55;;;20.55;;
54841;SDS011;40741;45.002;7.536;2024-02-23T05:37:32;33.20;;;21.20;;
54841;SDS011;40741;45.002;7.536;2024-02-23T05:39:58;29.08;;;19.67;;
54841;SDS011;40741;45.002;7.536;2024-02-23T05:42:25;27.67;;;16.77;;
54841;SDS011;40741;45.002;7.536;2024-02-23T05:44:51;23.08;;;16.85;;
54841;SDS011;40741;45.002;7.536;2024-02-23T05:47:18;28.15;;;17.83;;
54841;SDS011;40741;45.002;7.536;2024-02-23T05:49:46;24.83;;;15.82;;
54841;SDS011;40741;45.002;7.536;2024-02-23T05:52:12;33.08;;;20.67;;
54841;SDS011;40741;45.002;7.536;2024-02-23T05:54:38;31.23;;;18.83;;
54841;SDS011;40741;45.002;7.536;2024-02-23T05:57:04;21.52;;;13.18;;
54841;SDS011;40741;45.002;7.536;2024-02-23T05:59:30;14.25;;;10.55;;
54841;SDS011;40741;45.002;7.536;2024-02-23T06:01:56;10.93;;;7.88;;
54841;SDS011;40741;45.002;7.536;2024-02-23T06:04:23;10.85;;;7.55;;
54841;SDS011;40741;45.002;7.536;2024-02-23T06:06:49;9.18;;;6.68;;
54841;SDS011;40741;45.002;7.536;2024-02-23T06:09:16;9.88;;;7.85;;
54841;SDS011;40741;45.002;7.536;2024-02-23T06:11:43;11.48;;;8.73;;
54841;SDS011;40741;45.002;7.536;2024-02-23T06:14:09;11.40;;;8.40;;
54841;SDS011;40741;45.002;7.536;2024-02-23T06:16:36;13.52;;;9.70;;
54841;SDS011;40741;45.002;7.536;2024-02-23T06:19:02;15.05;;;9.80;;
54841;SDS011;40741;45.002;7.536;2024-02-23T06:21:28;10.98;;;8.27;;
54841;SDS011;40741;45.002;7.536;2024-02-23T06:23:54;12.43;;;9.32;;
54841;SDS011;40741;45.002;7.536;2024-02-23T06:26:21;13.35;;;9.05;;
54841;SDS011;40741;45.002;7.536;2024-02-23T06:28:47;13.10;;;9.00;;
54841;SDS011;40741;45.002;7.536;2024-02-23T06:31:13;13.27;;;9.52;;
54841;SDS011;40741;45.002;7.536;2024-02-23T06:33:40;14.55;;;9.63;;
54841;SDS011;40741;45.002;7.536;2024-02-23T06:36:06;12.32;;;8.93;;
54841;SDS011;40741;45.002;7.536;2024-02-23T06:38:32;11.43;;;8.90;;
54841;SDS011;40741;45.002;7.536;2024-02-23T06:40:58;12.07;;;8.57;;
54841;SDS011;40741;45.002;7.536;2024-02-23T06:43:24;12.45;;;9.18;;
54841;SDS011;40741;45.002;7.536;2024-02-23T06:45:50;13.30;;;9.40;;
54841;SDS011;40741;45.002;7.536;2024-02-23T06:48:16;14.20;;;9.52;;
54841;SDS011;40741;45.002;7.536;2024-02-23T06:50:42;11.70;;;9.57;;
54841;SDS011;40741;45.002;7.536;2024-02-23T06:53:08;12.00;;;9.20;;
54841;SDS011;40741;45.002;7.536;2024-02-23T06:55:34;12.32;;;9.85;;
54841;SDS011;40741;45.002;7.536;2024-02-23T06:58:01;14.05;;;8.30;;
54841;SDS011;40741;45.002;7.536;2024-02-23T07:00:27;11.25;;;8.55;;
54841;SDS011;40741;45.002;7.536;2024-02-23T07:02:53;14.10;;;9.98;;
54841;SDS011;40741;45.002;7.536;2024-02-23T07:05:19;12.95;;;9.55;;
54841;SDS011;40741;45.002;7.536;2024-02-23T07:07:45;13.27;;;10.77;;
54841;SDS011;40741;45.002;7.536;2024-02-23T07:10:11;13.40;;;9.63;;
54841;SDS011;40741;45.002;7.536;2024-02-23T07:12:37;12.25;;;9.07;;
54841;SDS011;40741;45.002;7.536;2024-02-23T07:15:03;13.10;;;9.35;;
54841;SDS011;40741;45.002;7.536;2024-02-23T07:17:29;11.77;;;8.88;;
54841;SDS011;40741;45.002;7.536;2024-02-23T07:19:55;14.15;;;9.38;;
54841;SDS011;40741;45.002;7.536;2024-02-23T07:22:29;13.38;;;9.00;;
54841;SDS011;40741;45.002;7.536;2024-02-23T07:24:55;14.07;;;9.85;;
54841;SDS011;40741;45.002;7.536;2024-02-23T07:27:21;15.55;;;10.05;;
54841;SDS011;40741;45.002;7.536;2024-02-23T07:29:47;11.90;;;8.80;;
54841;SDS011;40741;45.002;7.536;2024-02-23T07:32:14;12.73;;;8.90;;
54841;SDS011;40741;45.002;7.536;2024-02-23T07:34:40;12.13;;;9.07;;
54841;SDS011;40741;45.002;7.536;2024-02-23T07:37:06;13.63;;;9.07;;
54841;SDS011;40741;45.002;7.536;2024-02-23T07:39:31;13.55;;;8.82;;
54841;SDS011;40741;45.002;7.536;2024-02-23T07:41:58;11.45;;;7.82;;
54841;SDS011;40741;45.002;7.536;2024-02-23T07:44:24;11.00;;;7.82;;
54841;SDS011;40741;45.002;7.536;2024-02-23T07:46:50;11.65;;;8.70;;
54841;SDS011;40741;45.002;7.536;2024-02-23T07:49:19;10.82;;;8.13;;
54841;SDS011;40741;45.002;7.536;2024-02-23T07:51:45;14.32;;;7.80;;
54841;SDS011;40741;45.002;7.536;2024-02-23T07:54:11;15.25;;;9.88;;
54841;SDS011;40741;45.002;7.536;2024-02-23T07:56:37;11.52;;;8.27;;
54841;SDS011;40741;45.002;7.536;2024-02-23T07:59:03;13.23;;;8.85;;
54841;SDS011;40741;45.002;7.536;2024-02-23T08:01:29;12.50;;;9.32;;
54841;SDS011;40741;45.002;7.536;2024-02-23T08:03:55;14.10;;;9.70;;
54841;SDS011;40741;45.002;7.536;2024-02-23T08:06:21;14.30;;;8.75;;
54841;SDS011;40741;45.002;7.536;2024-02-23T08:08:47;14.88;;;9.27;;
54841;SDS011;40741;45.002;7.536;2024-02-23T08:11:13;13.75;;;8.57;;
54841;SDS011;40741;45.002;7.536;2024-02-23T08:13:39;14.50;;;9.02;;
54841;SDS011;40741;45.002;7.536;2024-02-23T08:16:06;12.55;;;8.68;;
54841;SDS011;40741;45.002;7.536;2024-02-23T08:18:32;13.30;;;9.00;;
54841;SDS011;40741;45.002;7.536;2024-02-23T08:20:58;12.05;;;8.88;;
54841;SDS011;40741;45.002;7.536;2024-02-23T08:23:27;11.73;;;8.80;;
54841;SDS011;40741;45.002;7.536;2024-02-23T08:25:53;11.50;;;8.18;;
54841;SDS011;40741;45.002;7.536;2024-02-23T08:28:21;12.75;;;8.75;;
54841;SDS011;40741;45.002;7.536;2024-02-23T08:30:47;10.88;;;8.15;;
54841;SDS011;40741;45.002;7.536;2024-02-23T08:33:13;11.90;;;8.50;;
54841;SDS011;40741;45.002;7.536;2024-02-23T08:35:39;12.18;;;8.15;;
54841;SDS011;40741;45.002;7.536;2024-02-23T08:38:06;11.88;;;8.40;;
54841;SDS011;40741;45.002;7.536;2024-02-23T08:40:34;10.10;;;7.65;;
54841;SDS011;40741;45.002;7.536;2024-02-23T08:43:00;11.02;;;8.07;;
54841;SDS011;40741;45.002;7.536;2024-02-23T08:45:26;11.65;;;7.00;;
54841;SDS011;40741;45.002;7.536;2024-02-23T08:47:52;7.75;;;5.88;;
54841;SDS011;40741;45.002;7.536;2024-02-23T08:50:18;7.18;;;5.15;;
54841;SDS011;40741;45.002;7.536;2024-02-23T08:52:44;8.25;;;6.43;;
54841;SDS011;40741;45.002;7.536;2024-02-23T08:55:10;8.68;;;6.88;;
54841;SDS011;40741;45.002;7.536;2024-02-23T08:57:36;8.88;;;6.65;;
54841;SDS011;40741;45.002;7.536;2024-02-23T09:00:03;8.23;;;5.45;;
54841;SDS011;40741;45.002;7.536;2024-02-23T09:02:29;7.88;;;5.80;;
54841;SDS011;40741;45.002;7.536;2024-02-23T09:04:57;8.18;;;6.03;;
54841;SDS011;40741;45.002;7.536;2024-02-23T09:07:23;8.00;;;6.22;;
54841;SDS011;40741;45.002;7.536;2024-02-23T09:09:49;8.98;;;6.28;;
54841;SDS011;40741;45.002;7.536;2024-02-23T09:12:15;8.18;;;6.22;;
54841;SDS011;40741;45.002;7.536;2024-02-23T09:14:42;8.90;;;6.53;;
54841;SDS011;40741;45.002;7.536;2024-02-23T09:17:09;7.65;;;5.90;;
54841;SDS011;40741;45.002;7.536;2024-02-23T09:19:36;8.20;;;5.93;;
54841;SDS011;40741;45.002;7.536;2024-02-23T09:22:02;8.63;;;5.90;;
54841;SDS011;40741;45.002;7.536;2024-02-23T09:24:28;9.43;;;6.25;;
54841;SDS011;40741;45.002;7.536;2024-02-23T09:26:54;6.95;;;5.07;;
54841;SDS011;40741;45.002;7.536;2024-02-23T09:29:20;6.50;;;5.05;;
54841;SDS011;40741;45.002;7.536;2024-02-23T09:31:47;6.97;;;5.10;;
54841;SDS011;40741;45.002;7.536;2024-02-23T09:34:13;7.63;;;5.43;;
54841;SDS011;40741;45.002;7.536;2024-02-23T09:36:39;6.28;;;4.88;;
54841;SDS011;40741;45.002;7.536;2024-02-23T09:39:05;6.10;;;4.20;;
54841;SDS011;40741;45.002;7.536;2024-02-23T09:41:31;4.97;;;4.32;;
54841;SDS011;40741;45.002;7.536;2024-02-23T09:44:00;5.72;;;4.07;;
54841;SDS011;40741;45.002;7.536;2024-02-23T09:46:27;5.22;;;3.58;;
54841;SDS011;40741;45.002;7.536;2024-02-23T09:48:53;4.45;;;3.70;;
54841;SDS011;40741;45.002;7.536;2024-02-23T09:51:20;5.55;;;4.05;;
54841;SDS011;40741;45.002;7.536;2024-02-23T09:53:46;5.28;;;4.43;;
54841;SDS011;40741;45.002;7.536;2024-02-23T09:56:15;11.30;;;4.50;;
54841;SDS011;40741;45.002;7.536;2024-02-23T09:58:43;6.75;;;4.95;;
54841;SDS011;40741;45.002;7.536;2024-02-23T10:01:10;6.40;;;4.47;;
54841;SDS011;40741;45.002;7.536;2024-02-23T10:03:37;5.63;;;4.63;;
54841;SDS011;40741;45.002;7.536;2024-02-23T10:06:03;6.65;;;4.82;;
54841;SDS011;40741;45.002;7.536;2024-02-23T10:08:30;5.90;;;4.55;;
54841;SDS011;40741;45.002;7.536;2024-02-23T10:10:56;7.82;;;5.38;;
54841;SDS011;40741;45.002;7.536;2024-02-23T10:13:23;8.38;;;5.72;;
54841;SDS011;40741;45.002;7.536;2024-02-23T10:15:49;6.45;;;5.20;;
54841;SDS011;40741;45.002;7.536;2024-02-23T10:18:16;5.97;;;4.57;;
54841;SDS011;40741;45.002;7.536;2024-02-23T10:20:42;12.20;;;5.60;;
54841;SDS011;40741;45.002;7.536;2024-02-23T10:23:08;7.18;;;4.72;;
54841;SDS011;40741;45.002;7.536;2024-02-23T10:25:35;7.25;;;5.25;;
54841;SDS011;40741;45.002;7.536;2024-02-23T10:28:02;6.18;;;5.05;;
54841;SDS011;40741;45.002;7.536;2024-02-23T10:30:28;5.90;;;4.97;;
54841;SDS011;40741;45.002;7.536;2024-02-23T10:32:55;5.13;;;2.67;;
54841;SDS011;40741;45.002;7.536;2024-02-23T10:35:21;6.43;;;4.72;;
54841;SDS011;40741;45.002;7.536;2024-02-23T10:37:48;6.13;;;4.50;;
54841;SDS011;40741;45.002;7.536;2024-02-23T10:40:17;6.20;;;4.07;;
54841;SDS011;40741;45.002;7.536;2024-02-23T10:42:44;5.32;;;4.20;;
54841;SDS011;40741;45.002;7.536;2024-02-23T10:45:16;5.45;;;4.20;;
54841;SDS011;40741;45.002;7.536;2024-02-23T10:47:42;6.50;;;4.07;;
54841;SDS011;40741;45.002;7.536;2024-02-23T10:50:08;5.57;;;4.30;;
54841;SDS011;40741;45.002;7.536;2024-02-23T10:52:35;5.55;;;4.13;;
54841;SDS011;40741;45.002;7.536;2024-02-23T10:55:01;5.05;;;3.95;;
54841;SDS011;40741;45.002;7.536;2024-02-23T10:57:31;6.05;;;3.83;;
54841;SDS011;40741;45.002;7.536;2024-02-23T10:59:57;4.38;;;2.70;;
54841;SDS011;40741;45.002;7.536;2024-02-23T11:02:24;5.40;;;3.92;;
54841;SDS011;40741;45.002;7.536;2024-02-23T11:04:53;2.67;;;2.10;;
54841;SDS011;40741;45.002;7.536;2024-02-23T11:07:20;6.88;;;4.78;;
54841;SDS011;40741;45.002;7.536;2024-02-23T11:09:52;4.18;;;2.97;;
54841;SDS011;40741;45.002;7.536;2024-02-23T11:12:25;6.47;;;4.70;;
54841;SDS011;40741;45.002;7.536;2024-02-23T11:14:56;5.88;;;4.07;;
54841;SDS011;40741;45.002;7.536;2024-02-23T11:17:23;7.30;;;4.95;;
54841;SDS011;40741;45.002;7.536;2024-02-23T11:19:51;5.20;;;4.70;;
54841;SDS011;40741;45.002;7.536;2024-02-23T11:22:53;6.25;;;5.05;;
54841;SDS011;40741;45.002;7.536;2024-02-23T11:25:12;5.93;;;4.82;;
54841;SDS011;40741;45.002;7.536;2024-02-23T11:27:38;6.75;;;5.47;;
54841;SDS011;40741;45.002;7.536;2024-02-23T11:30:08;6.45;;;5.35;;
54841;SDS011;40741;45.002;7.536;2024-02-23T11:35:07;6.35;;;5.68;;
54841;SDS011;40741;45.002;7.536;2024-02-23T11:37:52;11.18;;;6.03;;
54841;SDS011;40741;45.002;7.536;2024-02-23T11:40:25;7.47;;;5.55;;
54841;SDS011;40741;45.002;7.536;2024-02-23T11:42:51;13.43;;;5.90;;
54841;SDS011;40741;45.002;7.536;2024-02-23T11:45:17;7.32;;;5.60;;
54841;SDS011;40741;45.002;7.536;2024-02-23T11:47:43;8.13;;;5.55;;
54841;SDS011;40741;45.002;7.536;2024-02-23T11:50:09;7.60;;;6.00;;
54841;SDS011;40741;45.002;7.536;2024-02-23T11:52:38;6.75;;;5.95;;
54841;SDS011;40741;45.002;7.536;2024-02-23T11:55:05;8.65;;;5.95;;
54841;SDS011;40741;45.002;7.536;2024-02-23T11:57:32;6.93;;;5.53;;
54841;SDS011;40741;45.002;7.536;2024-02-23T11:59:58;6.47;;;5.32;;
54841;SDS011;40741;45.002;7.536;2024-02-23T12:02:24;7.55;;;5.93;;
54841;SDS011;40741;45.002;7.536;2024-02-23T12:04:50;7.15;;;5.75;;
54841;SDS011;40741;45.002;7.536;2024-02-23T12:07:16;8.10;;;6.18;;
54841;SDS011;40741;45.002;7.536;2024-02-23T12:09:42;7.45;;;5.75;;
54841;SDS011;40741;45.002;7.536;2024-02-23T12:12:08;5.95;;;5.30;;
54841;SDS011;40741;45.002;7.536;2024-02-23T12:14:37;6.35;;;5.38;;
54841;SDS011;40741;45.002;7.536;2024-02-23T12:17:03;7.82;;;6.07;;
54841;SDS011;40741;45.002;7.536;2024-02-23T12:19:30;8.88;;;6.18;;
54841;SDS011;40741;45.002;7.536;2024-02-23T12:22:00;7.38;;;6.15;;
54841;SDS011;40741;45.002;7.536;2024-02-23T12:24:26;10.70;;;6.32;;
54841;SDS011;40741;45.002;7.536;2024-02-23T12:26:54;8.57;;;6.32;;
54841;SDS011;40741;45.002;7.536;2024-02-23T12:29:20;8.05;;;6.45;;
54841;SDS011;40741;45.002;7.536;2024-02-23T12:31:46;7.97;;;6.00;;
54841;SDS011;40741;45.002;7.536;2024-02-23T12:34:13;8.07;;;6.63;;
54841;SDS011;40741;45.002;7.536;2024-02-23T12:36:39;8.43;;;6.30;;
54841;SDS011;40741;45.002;7.536;2024-02-23T12:39:05;8.10;;;6.22;;
54841;SDS011;40741;45.002;7.536;2024-02-23T12:41:31;9.18;;;6.57;;
54841;SDS011;40741;45.002;7.536;2024-02-23T12:43:58;8.55;;;6.78;;
54841;SDS011;40741;45.002;7.536;2024-02-23T12:46:24;11.40;;;8.25;;
54841;SDS011;40741;45.002;7.536;2024-02-23T12:48:50;9.43;;;6.95;;
54841;SDS011;40741;45.002;7.536;2024-02-23T12:51:16;9.70;;;7.13;;
54841;SDS011;40741;45.002;7.536;2024-02-23T12:53:44;8.15;;;6.22;;
54841;SDS011;40741;45.002;7.536;2024-02-23T12:56:11;10.32;;;7.80;;
54841;SDS011;40741;45.002;7.536;2024-02-23T12:58:38;9.68;;;7.45;;
54841;SDS011;40741;45.002;7.536;2024-02-23T13:01:05;8.93;;;6.80;;
54841;SDS011;40741;45.002;7.536;2024-02-23T13:03:32;7.68;;;6.30;;
54841;SDS011;40741;45.002;7.536;2024-02-23T13:06:00;8.85;;;6.95;;
54841;SDS011;40741;45.002;7.536;2024-02-23T13:08:26;9.68;;;7.07;;
54841;SDS011;40741;45.002;7.536;2024-02-23T13:10:53;9.40;;;7.00;;
54841;SDS011;40741;45.002;7.536;2024-02-23T13:13:21;9.75;;;7.30;;
54841;SDS011;40741;45.002;7.536;2024-02-23T13:15:48;10.40;;;7.65;;
54841;SDS011;40741;45.002;7.536;2024-02-23T13:18:14;10.20;;;7.53;;
54841;SDS011;40741;45.002;7.536;2024-02-23T13:20:40;10.85;;;8.13;;
54841;SDS011;40741;45.002;7.536;2024-02-23T13:23:07;10.30;;;7.93;;
54841;SDS011;40741;45.002;7.536;2024-02-23T13:25:43;12.48;;;8.55;;
54841;SDS011;40741;45.002;7.536;2024-02-23T13:28:10;19.27;;;9.82;;
54841;SDS011;40741;45.002;7.536;2024-02-23T13:30:36;16.45;;;10.90;;
54841;SDS011;40741;45.002;7.536;2024-02-23T13:33:02;13.45;;;10.32;;
54841;SDS011;40741;45.002;7.536;2024-02-23T13:35:29;16.85;;;11.52;;
54841;SDS011;40741;45.002;7.536;2024-02-23T13:37:56;16.15;;;10.50;;
54841;SDS011;40741;45.002;7.536;2024-02-23T13:40:25;18.80;;;13.40;;
54841;SDS011;40741;45.002;7.536;2024-02-23T13:42:51;19.88;;;11.95;;
54841;SDS011;40741;45.002;7.536;2024-02-23T13:45:20;11.07;;;7.35;;
54841;SDS011;40741;45.002;7.536;2024-02-23T13:47:58;18.25;;;12.25;;
54841;SDS011;40741;45.002;7.536;2024-02-23T13:50:24;8.35;;;5.70;;
54841;SDS011;40741;45.002;7.536;2024-02-23T13:52:50;10.32;;;7.20;;
54841;SDS011;40741;45.002;7.536;2024-02-23T13:55:17;8.90;;;6.10;;
54841;SDS011;40741;45.002;7.536;2024-02-23T13:57:45;7.85;;;5.38;;
54841;SDS011;40741;45.002;7.536;2024-02-23T14:00:11;15.23;;;9.00;;
54841;SDS011;40741;45.002;7.536;2024-02-23T14:02:37;14.60;;;8.75;;
54841;SDS011;40741;45.002;7.536;2024-02-23T14:05:05;22.48;;;14.48;;
54841;SDS011;40741;45.002;7.536;2024-02-23T14:07:32;18.90;;;12.40;;
54841;SDS011;40741;45.002;7.536;2024-02-23T14:09:58;18.45;;;13.02;;
54841;SDS011;40741;45.002;7.536;2024-02-23T14:12:24;6.75;;;4.20;;
54841;SDS011;40741;45.002;7.536;2024-02-23T14:14:50;17.52;;;12.43;;
54841;SDS011;40741;45.002;7.536;2024-02-23T14:17:17;13.32;;;8.90;;
54841;SDS011;40741;45.002;7.536;2024-02-23T14:19:43;11.88;;;7.47;;
54841;SDS011;40741;45.002;7.536;2024-02-23T14:22:09;16.48;;;11.43;;
54841;SDS011;40741;45.002;7.536;2024-02-23T14:24:35;17.42;;;11.75;;
54841;SDS011;40741;45.002;7.536;2024-02-23T14:27:01;10.43;;;6.78;;
54841;SDS011;40741;45.002;7.536;2024-02-23T14:29:27;11.73;;;7.90;;
54841;SDS011;40741;45.002;7.536;2024-02-23T14:31:53;7.82;;;5.40;;